Time;durP1;ratioP1;P1;durP2;ratioP2;P2;SDS_P1;SDS_P2;PMS_P1;PMS_P2;Temp;Humidity;BMP_temperature;BMP_pressure;BME280_temperature;BME280_humidity;BME280_pressure;Samples;Min_cycle;Max_cycle;Signal;HPM_P1;HPM_P2
2022/05/07 00:01:02;;;;;;;8.10;4.65;;;;;;;;;;4897736;29;20135;-74
2022/05/07 00:03:31;;;;;;;8.75;4.93;;;;;;;;;;4894958;29;20020;-74
2022/05/07 00:05:57;;;;;;;9.95;5.25;;;;;;;;;;4885404;29;20539;-74
2022/05/07 00:08:23;;;;;;;8.68;4.90;;;;;;;;;;4898358;29;20028;-75
2022/05/07 00:10:49;;;;;;;11.13;4.85;;;;;;;;;;4897338;29;20043;-74
2022/05/07 00:13:17;;;;;;;14.40;5.20;;;;;;;;;;4897181;29;20052;-74
2022/05/07 00:18:01;;;;;;;10.77;5.68;;;;;;;;;;4899039;29;20028;-75
2022/05/07 00:18:30;;;;;;;10.00;6.05;;;;;;;;;;4895810;29;20091;-75
2022/05/07 00:20:56;;;;;;;9.57;6.50;;;;;;;;;;4899306;29;20029;-74
2022/05/07 00:23:22;;;;;;;10.00;5.60;;;;;;;;;;4898826;29;20403;-77
2022/05/07 00:25:48;;;;;;;11.73;5.93;;;;;;;;;;4897114;29;20035;-74
2022/05/07 00:28:14;;;;;;;8.18;5.82;;;;;;;;;;4898197;29;20109;-74
2022/05/07 00:30:40;;;;;;;10.43;6.43;;;;;;;;;;4898032;29;20024;-74
2022/05/07 00:33:06;;;;;;;9.35;6.47;;;;;;;;;;4899607;29;20029;-76
2022/05/07 00:35:32;;;;;;;11.70;7.03;;;;;;;;;;4897159;29;20025;-74
2022/05/07 00:37:58;;;;;;;9.35;6.30;;;;;;;;;;4898960;29;20020;-74
2022/05/07 00:40:24;;;;;;;12.30;6.80;;;;;;;;;;4901196;29;20509;-78
2022/05/07 00:42:53;;;;;;;10.13;6.47;;;;;;;;;;4898099;29;20037;-74
2022/05/07 00:45:19;;;;;;;10.57;7.07;;;;;;;;;;4897136;29;20517;-73
2022/05/07 00:47:45;;;;;;;9.93;7.18;;;;;;;;;;4897189;29;20063;-77
2022/05/07 00:52:56;;;;;;;9.88;7.22;;;;;;;;;;4898830;29;20456;-74
2022/05/07 00:55:22;;;;;;;11.57;7.30;;;;;;;;;;4894817;29;20029;-74
2022/05/07 00:57:53;;;;;;;13.80;7.22;;;;;;;;;;4894818;29;20423;-74
2022/05/07 01:00:19;;;;;;;12.32;7.18;;;;;;;;;;4898579;29;20180;-74
2022/05/07 01:02:45;;;;;;;11.25;7.30;;;;;;;;;;4899345;29;20025;-77
2022/05/07 01:05:11;;;;;;;10.43;7.30;;;;;;;;;;4898883;29;20021;-75
2022/05/07 01:07:37;;;;;;;13.23;7.82;;;;;;;;;;4895450;29;20029;-75
2022/05/07 01:10:04;;;;;;;9.65;7.50;;;;;;;;;;4897805;29;20577;-77
2022/05/07 01:12:30;;;;;;;11.52;7.43;;;;;;;;;;4898085;29;20037;-74
2022/05/07 01:15:00;;;;;;;10.68;7.18;;;;;;;;;;4895265;29;20040;-74
2022/05/07 01:17:26;;;;;;;10.32;7.45;;;;;;;;;;4897192;29;20108;-73
2022/05/07 01:19:53;;;;;;;9.35;7.15;;;;;;;;;;4897754;29;20037;-74
2022/05/07 01:22:20;;;;;;;9.63;7.20;;;;;;;;;;4898719;29;20096;-75
2022/05/07 01:24:46;;;;;;;11.30;7.53;;;;;;;;;;4899873;29;20048;-74
2022/05/07 01:27:12;;;;;;;12.25;7.22;;;;;;;;;;4897915;29;20225;-74
2022/05/07 01:29:38;;;;;;;8.85;7.18;;;;;;;;;;4897923;29;20074;-74
2022/05/07 01:32:04;;;;;;;13.77;8.13;;;;;;;;;;4899743;29;20043;-74
2022/05/07 01:34:33;;;;;;;11.68;8.45;;;;;;;;;;4900043;29;20112;-74
2022/05/07 01:36:59;;;;;;;12.75;7.75;;;;;;;;;;4898198;29;20546;-74
2022/05/07 01:39:25;;;;;;;11.10;8.10;;;;;;;;;;4896033;29;20151;-74
2022/05/07 01:41:53;;;;;;;11.50;7.68;;;;;;;;;;4899219;29;20043;-74
2022/05/07 01:44:19;;;;;;;12.38;7.50;;;;;;;;;;4897539;29;20160;-74
2022/05/07 01:49:30;;;;;;;11.80;7.47;;;;;;;;;;4893033;29;20791;-74
2022/05/07 01:51:56;;;;;;;10.25;7.35;;;;;;;;;;4899743;29;20033;-74
2022/05/07 01:54:26;;;;;;;10.73;7.60;;;;;;;;;;4898564;29;20103;-74
2022/05/07 01:56:52;;;;;;;8.98;7.88;;;;;;;;;;4896870;29;20111;-74
2022/05/07 01:59:18;;;;;;;11.23;8.02;;;;;;;;;;4898210;29;20036;-74
2022/05/07 02:01:44;;;;;;;10.98;7.75;;;;;;;;;;4897229;29;20043;-74
2022/05/07 02:04:10;;;;;;;11.27;7.50;;;;;;;;;;4897852;29;20029;-74
2022/05/07 02:06:36;;;;;;;10.45;7.72;;;;;;;;;;4898847;29;20035;-73
2022/05/07 02:09:02;;;;;;;13.10;7.93;;;;;;;;;;4898384;29;20040;-73
2022/05/07 02:11:29;;;;;;;10.30;8.07;;;;;;;;;;4897883;29;20037;-74
2022/05/07 02:13:55;;;;;;;13.02;7.95;;;;;;;;;;4898702;29;20076;-74
2022/05/07 02:16:21;;;;;;;9.52;7.82;;;;;;;;;;4898847;29;20113;-73
2022/05/07 02:18:47;;;;;;;10.98;7.97;;;;;;;;;;4899101;29;20052;-74
2022/05/07 02:21:13;;;;;;;13.88;8.20;;;;;;;;;;4897002;29;20045;-74
2022/05/07 02:23:39;;;;;;;10.75;7.82;;;;;;;;;;4898623;29;20463;-74
2022/05/07 02:26:05;;;;;;;14.05;7.60;;;;;;;;;;4898740;29;20398;-73
2022/05/07 02:28:31;;;;;;;12.40;7.35;;;;;;;;;;4898321;29;20395;-74
2022/05/07 02:30:57;;;;;;;12.52;7.75;;;;;;;;;;4897482;29;20024;-74
2022/05/07 02:33:23;;;;;;;14.18;7.90;;;;;;;;;;4895856;29;20032;-74
2022/05/07 02:35:49;;;;;;;15.68;8.15;;;;;;;;;;4899178;29;20068;-74
2022/05/07 02:38:15;;;;;;;13.85;7.57;;;;;;;;;;4894019;29;20058;-74
2022/05/07 02:43:26;;;;;;;11.45;8.02;;;;;;;;;;4894715;29;20040;-74
2022/05/07 02:45:53;;;;;;;10.27;7.97;;;;;;;;;;4898508;29;20099;-74
2022/05/07 02:48:19;;;;;;;13.60;8.73;;;;;;;;;;4895429;29;20032;-74
2022/05/07 02:50:45;;;;;;;13.57;8.75;;;;;;;;;;4898171;29;20075;-73
2022/05/07 02:53:11;;;;;;;13.80;8.65;;;;;;;;;;4896217;29;20056;-74
2022/05/07 02:55:37;;;;;;;10.88;7.97;;;;;;;;;;4897822;29;20048;-74
2022/05/07 02:58:03;;;;;;;10.60;8.30;;;;;;;;;;4898248;29;20024;-74
2022/05/07 03:00:29;;;;;;;11.82;7.95;;;;;;;;;;4898369;29;20124;-74
2022/05/07 03:02:55;;;;;;;13.85;8.38;;;;;;;;;;4893861;29;20037;-73
2022/05/07 03:05:21;;;;;;;11.43;8.82;;;;;;;;;;4896958;29;20482;-74
2022/05/07 03:07:50;;;;;;;10.02;8.27;;;;;;;;;;4898449;29;20458;-74
2022/05/07 03:10:16;;;;;;;12.50;8.57;;;;;;;;;;4898140;29;20360;-74
2022/05/07 03:12:42;;;;;;;11.40;8.60;;;;;;;;;;4897043;29;20080;-74
2022/05/07 03:15:11;;;;;;;12.90;9.13;;;;;;;;;;4894848;29;20483;-74
2022/05/07 03:17:37;;;;;;;13.65;8.70;;;;;;;;;;4898010;29;20105;-73
2022/05/07 03:20:08;;;;;;;11.95;8.48;;;;;;;;;;4898417;29;20394;-77
2022/05/07 03:22:34;;;;;;;11.73;8.85;;;;;;;;;;4895331;29;20044;-74
2022/05/07 03:25:00;;;;;;;10.88;8.82;;;;;;;;;;4895128;29;20096;-74
2022/05/07 03:27:29;;;;;;;11.02;8.45;;;;;;;;;;4898237;29;20047;-75
2022/05/07 03:29:55;;;;;;;15.07;8.88;;;;;;;;;;4896609;29;20028;-74
2022/05/07 03:32:22;;;;;;;12.60;8.85;;;;;;;;;;4899132;29;20033;-74
2022/05/07 03:34:48;;;;;;;9.93;8.50;;;;;;;;;;4893612;29;20032;-74
2022/05/07 03:37:15;;;;;;;12.48;8.55;;;;;;;;;;4896700;29;20064;-74
2022/05/07 03:39:41;;;;;;;13.23;9.45;;;;;;;;;;4900577;29;20032;-75
2022/05/07 03:42:07;;;;;;;10.73;8.77;;;;;;;;;;4897670;29;20442;-74
2022/05/07 03:44:33;;;;;;;11.35;8.38;;;;;;;;;;4895888;29;20105;-74
2022/05/07 03:46:59;;;;;;;10.48;8.73;;;;;;;;;;4900327;29;20041;-74
2022/05/07 03:49:25;;;;;;;13.13;8.95;;;;;;;;;;4897009;29;20037;-74
2022/05/07 03:54:36;;;;;;;10.02;8.68;;;;;;;;;;4895049;29;20088;-74
2022/05/07 03:57:02;;;;;;;10.93;8.90;;;;;;;;;;4895851;29;20034;-74
2022/05/07 03:59:29;;;;;;;10.85;8.82;;;;;;;;;;4896526;29;20034;-73
2022/05/07 04:01:55;;;;;;;14.52;9.02;;;;;;;;;;4897120;29;20609;-77
2022/05/07 04:04:21;;;;;;;12.25;8.45;;;;;;;;;;4897426;29;20044;-74
2022/05/07 04:06:47;;;;;;;11.88;9.18;;;;;;;;;;4896349;29;20104;-74
2022/05/07 04:09:13;;;;;;;11.55;9.25;;;;;;;;;;4895634;29;20025;-74
2022/05/07 04:11:39;;;;;;;14.85;9.10;;;;;;;;;;4896517;29;20059;-74
2022/05/07 04:14:07;;;;;;;10.70;9.20;;;;;;;;;;4896423;29;20033;-74
2022/05/07 04:16:34;;;;;;;15.00;9.40;;;;;;;;;;4896501;29;20513;-74
2022/05/07 04:19:00;;;;;;;12.13;9.45;;;;;;;;;;4896135;29;20617;-78
2022/05/07 04:21:27;;;;;;;12.65;9.55;;;;;;;;;;4899455;29;20127;-77
2022/05/07 04:23:53;;;;;;;21.58;10.77;;;;;;;;;;4897840;29;20147;-74
2022/05/07 04:26:19;;;;;;;16.50;10.48;;;;;;;;;;4897177;29;20040;-74
2022/05/07 04:28:45;;;;;;;13.25;10.48;;;;;;;;;;4894158;29;20032;-75
2022/05/07 04:31:11;;;;;;;14.32;10.48;;;;;;;;;;4896264;29;20605;-77
2022/05/07 04:33:37;;;;;;;18.40;10.13;;;;;;;;;;4897518;29;20028;-77
2022/05/07 04:36:03;;;;;;;22.77;10.35;;;;;;;;;;4898361;29;20036;-74
2022/05/07 04:38:29;;;;;;;14.05;9.98;;;;;;;;;;4897561;29;20036;-73
2022/05/07 04:40:55;;;;;;;19.90;10.35;;;;;;;;;;4898436;29;20045;-78
2022/05/07 04:43:21;;;;;;;15.18;9.90;;;;;;;;;;4898569;29;20036;-75
2022/05/07 04:45:47;;;;;;;17.88;10.88;;;;;;;;;;4898792;29;20546;-74
2022/05/07 04:48:13;;;;;;;15.68;9.38;;;;;;;;;;4900039;29;20036;-74
2022/05/07 04:50:39;;;;;;;14.80;9.77;;;;;;;;;;4895616;29;20498;-75
2022/05/07 04:53:05;;;;;;;14.93;10.18;;;;;;;;;;4897376;29;20060;-74
2022/05/07 04:55:32;;;;;;;16.45;9.77;;;;;;;;;;4901482;29;20029;-75
2022/05/07 04:57:58;;;;;;;23.85;10.18;;;;;;;;;;4902546;29;20036;-78
2022/05/07 05:00:24;;;;;;;19.17;9.55;;;;;;;;;;4901349;29;20051;-74
2022/05/07 05:02:50;;;;;;;14.70;10.10;;;;;;;;;;4901931;29;20033;-74
2022/05/07 05:05:16;;;;;;;16.63;9.50;;;;;;;;;;4904854;29;20028;-77
2022/05/07 05:07:43;;;;;;;12.45;9.43;;;;;;;;;;4910467;29;20033;-76
2022/05/07 05:10:09;;;;;;;15.27;9.75;;;;;;;;;;4903287;29;20387;-74
2022/05/07 05:12:35;;;;;;;10.65;9.18;;;;;;;;;;4903916;29;20115;-75
2022/05/07 05:15:01;;;;;;;13.52;9.18;;;;;;;;;;4903999;29;20035;-74
2022/05/07 05:17:28;;;;;;;15.52;10.27;;;;;;;;;;4902081;29;20040;-77
2022/05/07 05:19:54;;;;;;;14.77;9.57;;;;;;;;;;4902898;29;20025;-74
2022/05/07 05:22:20;;;;;;;13.88;8.57;;;;;;;;;;4900138;29;20041;-78
2022/05/07 05:24:46;;;;;;;14.95;10.18;;;;;;;;;;4901804;29;20097;-77
2022/05/07 05:27:12;;;;;;;12.18;9.73;;;;;;;;;;4903939;29;20547;-74
2022/05/07 05:29:38;;;;;;;12.50;9.30;;;;;;;;;;4901888;29;20036;-75
2022/05/07 05:32:05;;;;;;;17.58;10.32;;;;;;;;;;4903248;29;20040;-75
2022/05/07 05:34:31;;;;;;;18.48;10.15;;;;;;;;;;4899901;29;20091;-78
2022/05/07 05:36:57;;;;;;;12.30;9.18;;;;;;;;;;4898387;29;20049;-74
2022/05/07 05:39:23;;;;;;;16.92;10.35;;;;;;;;;;4894136;29;20036;-72
2022/05/07 05:41:49;;;;;;;12.90;9.55;;;;;;;;;;4913340;29;20028;-75
2022/05/07 05:44:15;;;;;;;17.35;10.30;;;;;;;;;;4904045;29;20066;-76
2022/05/07 05:46:41;;;;;;;14.30;9.90;;;;;;;;;;4907481;29;20044;-75
2022/05/07 05:49:07;;;;;;;13.93;10.45;;;;;;;;;;4880307;29;20036;-76
2022/05/07 05:51:33;;;;;;;16.40;10.30;;;;;;;;;;4905446;29;20028;-75
2022/05/07 05:53:59;;;;;;;11.00;9.82;;;;;;;;;;4916913;29;20032;-76
2022/05/07 05:56:32;;;;;;;14.90;10.07;;;;;;;;;;4908709;29;20467;-78
2022/05/07 05:59:04;;;;;;;16.98;10.65;;;;;;;;;;4911877;29;20056;-78
2022/05/07 06:01:42;;;;;;;17.63;10.32;;;;;;;;;;4911146;29;20072;-77
2022/05/07 06:04:09;;;;;;;15.88;10.57;;;;;;;;;;4913447;29;20032;-77
2022/05/07 06:06:41;;;;;;;16.48;11.50;;;;;;;;;;4911423;29;20153;-77
2022/05/07 06:09:07;;;;;;;15.63;11.07;;;;;;;;;;4906105;29;20161;-76
2022/05/07 06:11:38;;;;;;;17.45;10.73;;;;;;;;;;4900530;29;20036;-76
2022/05/07 06:14:04;;;;;;;11.30;10.00;;;;;;;;;;4901816;29;20029;-77
2022/05/07 06:16:30;;;;;;;14.27;10.10;;;;;;;;;;4905475;29;20008;-79
2022/05/07 06:19:19;;;;;;;17.25;9.95;;;;;;;;;;4903918;29;20054;-78
2022/05/07 06:22:06;;;;;;;13.27;9.57;;;;;;;;;;4852118;29;20572;-76
2022/05/07 06:27:28;;;;;;;11.45;9.35;;;;;;;;;;4863876;29;20048;-77
2022/05/07 06:29:54;;;;;;;13.10;9.25;;;;;;;;;;4847977;29;20033;-78
2022/05/07 06:32:29;;;;;;;13.52;9.68;;;;;;;;;;4841559;29;20567;-78
2022/05/07 06:34:58;;;;;;;12.90;9.00;;;;;;;;;;4857600;29;20100;-74
2022/05/07 06:37:31;;;;;;;15.88;9.48;;;;;;;;;;4842569;29;20161;-78
2022/05/07 06:39:57;;;;;;;19.20;10.15;;;;;;;;;;4846427;29;20030;-76
2022/05/07 06:42:24;;;;;;;12.05;8.02;;;;;;;;;;4838694;29;20094;-76
2022/05/07 06:44:50;;;;;;;13.15;6.97;;;;;;;;;;4848218;29;20070;-78
2022/05/07 06:47:19;;;;;;;12.30;7.18;;;;;;;;;;4834429;29;20094;-77
2022/05/07 06:49:53;;;;;;;9.95;6.22;;;;;;;;;;4843733;29;20125;-85
2022/05/07 06:52:20;;;;;;;8.68;5.88;;;;;;;;;;4858049;29;20108;-81
2022/05/07 06:55:04;;;;;;;11.73;6.60;;;;;;;;;;4893712;29;20487;-86
2022/05/07 06:57:55;;;;;;;9.77;6.35;;;;;;;;;;4904838;29;20031;-84
2022/05/07 07:00:21;;;;;;;10.52;6.65;;;;;;;;;;4898620;29;20044;-85
2022/05/07 07:02:49;;;;;;;13.30;6.15;;;;;;;;;;4882018;29;20065;-87
2022/05/07 07:05:15;;;;;;;10.73;6.72;;;;;;;;;;4897908;29;20024;-89
2022/05/07 07:07:42;;;;;;;10.63;6.45;;;;;;;;;;4895277;29;20048;-87
2022/05/07 07:10:08;;;;;;;9.80;6.30;;;;;;;;;;4896242;29;20040;-86
2022/05/07 07:12:38;;;;;;;13.00;7.35;;;;;;;;;;4892901;29;20435;-89
2022/05/07 07:15:06;;;;;;;10.35;7.10;;;;;;;;;;4894136;29;20098;-82
2022/05/07 07:17:32;;;;;;;18.33;7.50;;;;;;;;;;4894237;29;20037;-83
2022/05/07 07:19:58;;;;;;;14.52;7.72;;;;;;;;;;4897575;29;20045;-90
2022/05/07 07:22:24;;;;;;;10.48;7.50;;;;;;;;;;4896826;29;20040;-84
2022/05/07 07:24:50;;;;;;;12.23;7.38;;;;;;;;;;4895852;29;20128;-88
2022/05/07 07:27:16;;;;;;;14.82;8.20;;;;;;;;;;4897659;29;20040;-77
2022/05/07 07:29:47;;;;;;;11.43;7.72;;;;;;;;;;4897891;29;20036;-77
2022/05/07 07:32:13;;;;;;;10.65;8.25;;;;;;;;;;4896265;29;20517;-74
2022/05/07 07:34:39;;;;;;;13.32;8.25;;;;;;;;;;4899323;29;20028;-74
2022/05/07 07:37:05;;;;;;;10.98;7.93;;;;;;;;;;4897423;29;20430;-74
2022/05/07 07:39:32;;;;;;;17.35;8.50;;;;;;;;;;4895764;29;20077;-74
2022/05/07 07:41:58;;;;;;;11.70;7.82;;;;;;;;;;4895587;29;20048;-75
2022/05/07 07:44:26;;;;;;;11.93;8.25;;;;;;;;;;4895513;29;20044;-74
2022/05/07 07:49:37;;;;;;;9.27;7.18;;;;;;;;;;4895768;29;20505;-75
2022/05/07 07:52:03;;;;;;;11.15;7.20;;;;;;;;;;4897435;29;20029;-74
2022/05/07 07:54:29;;;;;;;13.85;8.00;;;;;;;;;;4897223;29;20036;-74
2022/05/07 07:56:56;;;;;;;9.20;7.35;;;;;;;;;;4872983;29;20032;-74
2022/05/07 07:59:23;;;;;;;11.00;7.22;;;;;;;;;;4897144;29;20084;-74
2022/05/07 08:01:49;;;;;;;10.85;7.07;;;;;;;;;;4896102;29;20052;-75
2022/05/07 08:04:15;;;;;;;11.10;7.18;;;;;;;;;;4897474;29;20029;-74
2022/05/07 08:06:41;;;;;;;12.00;7.30;;;;;;;;;;4893789;29;20286;-74
2022/05/07 08:11:55;;;;;;;13.27;6.65;;;;;;;;;;4894161;29;20079;-74
2022/05/07 08:14:21;;;;;;;11.18;6.53;;;;;;;;;;4897070;29;20712;-74
2022/05/07 08:16:48;;;;;;;7.40;5.88;;;;;;;;;;4896394;29;20387;-75
2022/05/07 08:19:14;;;;;;;8.85;5.35;;;;;;;;;;4897673;29;20112;-76
2022/05/07 08:21:40;;;;;;;10.13;5.50;;;;;;;;;;4895962;29;20036;-74
2022/05/07 08:24:06;;;;;;;11.38;5.40;;;;;;;;;;4897360;29;20048;-74
2022/05/07 08:26:32;;;;;;;6.55;5.00;;;;;;;;;;4896375;29;20039;-75
2022/05/07 08:28:59;;;;;;;7.40;5.00;;;;;;;;;;4893852;29;20029;-73
2022/05/07 08:31:25;;;;;;;7.78;4.90;;;;;;;;;;4896256;29;20033;-74
2022/05/07 08:33:51;;;;;;;13.38;5.45;;;;;;;;;;4897123;29;20376;-74
2022/05/07 08:36:17;;;;;;;10.25;4.93;;;;;;;;;;4895655;29;20123;-74
2022/05/07 08:38:44;;;;;;;7.45;4.47;;;;;;;;;;4895731;29;20035;-74
2022/05/07 08:41:11;;;;;;;7.45;4.72;;;;;;;;;;4897252;29;20108;-74
2022/05/07 08:43:38;;;;;;;9.15;4.15;;;;;;;;;;4895601;29;20031;-73
2022/05/07 08:46:14;;;;;;;10.07;5.00;;;;;;;;;;4896929;29;20032;-74
2022/05/07 08:48:47;;;;;;;10.27;4.72;;;;;;;;;;4896571;29;20021;-78
2022/05/07 08:51:15;;;;;;;9.05;4.78;;;;;;;;;;4896652;29;20037;-74
2022/05/07 08:53:43;;;;;;;12.73;5.30;;;;;;;;;;4907805;29;20473;-74
2022/05/07 08:56:09;;;;;;;12.35;5.60;;;;;;;;;;4894117;29;20036;-73
2022/05/07 08:58:35;;;;;;;9.25;5.40;;;;;;;;;;4895192;29;20033;-85
2022/05/07 09:01:01;;;;;;;10.95;5.35;;;;;;;;;;4893408;29;20048;-89
2022/05/07 09:03:38;;;;;;;11.18;5.38;;;;;;;;;;4880731;29;20036;-89
2022/05/07 09:06:14;;;;;;;11.20;5.90;;;;;;;;;;4885738;29;20036;-89
2022/05/07 09:08:40;;;;;;;9.18;5.95;;;;;;;;;;4896462;29;20047;-87
2022/05/07 09:11:06;;;;;;;12.20;5.78;;;;;;;;;;4900867;29;20032;-89
2022/05/07 09:13:35;;;;;;;12.80;5.60;;;;;;;;;;4882013;29;20025;-84
2022/05/07 09:16:02;;;;;;;13.85;5.10;;;;;;;;;;4895924;29;20096;-85
2022/05/07 09:18:29;;;;;;;13.10;5.90;;;;;;;;;;4900815;29;20025;-90
2022/05/07 09:21:20;;;;;;;33.90;6.88;;;;;;;;;;4894227;29;20036;-77
2022/05/07 09:23:46;;;;;;;8.95;5.60;;;;;;;;;;4891475;29;20045;-76
2022/05/07 09:26:25;;;;;;;12.20;5.65;;;;;;;;;;4894436;29;20044;-78
2022/05/07 09:28:51;;;;;;;8.52;5.40;;;;;;;;;;4895444;29;20028;-72
2022/05/07 09:31:27;;;;;;;16.30;4.65;;;;;;;;;;4895615;29;20112;-74
2022/05/07 09:35:47;;;;;;;14.15;5.10;;;;;;;;;;4897230;29;20036;-77
2022/05/07 09:36:46;;;;;;;9.13;4.43;;;;;;;;;;4896064;29;20033;-90
2022/05/07 09:39:14;;;;;;;13.40;5.15;;;;;;;;;;4869705;29;20041;-88
2022/05/07 09:41:43;;;;;;;8.55;4.60;;;;;;;;;;4892537;29;20048;-78
2022/05/07 09:44:13;;;;;;;14.38;5.40;;;;;;;;;;4896334;29;20427;-84
2022/05/07 09:46:39;;;;;;;11.95;5.25;;;;;;;;;;4889037;29;20195;-85
2022/05/07 09:49:08;;;;;;;8.75;5.07;;;;;;;;;;4899912;29;20029;-86
2022/05/07 09:51:34;;;;;;;15.27;5.57;;;;;;;;;;4898984;29;20387;-85
2022/05/07 09:59:32;;;;;;;8.88;5.40;;;;;;;;;;4899535;29;20035;-85
2022/05/07 10:02:17;;;;;;;15.15;5.47;;;;;;;;;;4893607;29;20032;-90
2022/05/07 10:05:02;;;;;;;8.20;4.97;;;;;;;;;;4896805;29;20032;-87
2022/05/07 10:07:31;;;;;;;9.65;5.40;;;;;;;;;;4880476;29;20062;-85
2022/05/07 10:09:58;;;;;;;8.65;5.25;;;;;;;;;;4898565;29;20020;-89
2022/05/07 10:12:24;;;;;;;10.40;5.43;;;;;;;;;;4897515;29;20107;-90
2022/05/07 10:14:50;;;;;;;13.27;5.28;;;;;;;;;;4898346;29;20021;-82
2022/05/07 10:17:21;;;;;;;12.52;5.20;;;;;;;;;;4897128;29;20037;-85
2022/05/07 10:19:49;;;;;;;68.50;9.57;;;;;;;;;;4894976;29;20475;-86
2022/05/07 10:22:23;;;;;;;17.27;5.85;;;;;;;;;;4897241;29;20053;-81
2022/05/07 10:25:03;;;;;;;15.75;5.22;;;;;;;;;;4892622;29;20053;-84
2022/05/07 10:27:37;;;;;;;22.20;5.88;;;;;;;;;;4895830;29;20029;-85
2022/05/07 10:30:05;;;;;;;37.17;6.88;;;;;;;;;;4897331;29;20029;-87
2022/05/07 10:32:42;;;;;;;10.85;4.60;;;;;;;;;;4894764;29;20043;-84
2022/05/07 10:35:08;;;;;;;22.17;5.68;;;;;;;;;;4898941;29;20117;-84
2022/05/07 10:37:40;;;;;;;9.25;4.63;;;;;;;;;;4893318;29;20028;-82
2022/05/07 10:40:10;;;;;;;9.40;5.10;;;;;;;;;;4896017;29;20036;-80
2022/05/07 10:42:40;;;;;;;13.35;5.30;;;;;;;;;;4891999;29;20538;-81
2022/05/07 10:45:07;;;;;;;9.10;4.80;;;;;;;;;;4897200;29;20435;-79
2022/05/07 10:47:33;;;;;;;10.48;4.68;;;;;;;;;;4899360;29;20039;-80
2022/05/07 10:50:12;;;;;;;13.52;4.57;;;;;;;;;;4898918;29;20025;-87
2022/05/07 10:52:38;;;;;;;13.95;6.30;;;;;;;;;;4899075;29;20368;-81
2022/05/07 10:55:12;;;;;;;20.73;7.57;;;;;;;;;;4899409;29;20033;-80
2022/05/07 10:57:42;;;;;;;8.60;4.97;;;;;;;;;;4899418;29;20092;-79
2022/05/07 11:00:10;;;;;;;10.63;4.70;;;;;;;;;;4897729;29;20029;-79
2022/05/07 11:02:36;;;;;;;9.98;5.30;;;;;;;;;;4898185;29;20028;-80
2022/05/07 11:05:02;;;;;;;17.38;5.60;;;;;;;;;;4900344;29;20021;-79
2022/05/07 11:07:29;;;;;;;9.27;4.60;;;;;;;;;;4899809;29;20419;-80
2022/05/07 11:09:55;;;;;;;60.30;6.47;;;;;;;;;;4899373;29;20079;-87
2022/05/07 11:12:22;;;;;;;11.77;4.70;;;;;;;;;;4896514;29;20020;-76
2022/05/07 11:14:51;;;;;;;12.15;4.43;;;;;;;;;;4906310;29;20491;-80
2022/05/07 11:17:28;;;;;;;9.23;4.50;;;;;;;;;;4898424;29;20052;-79
2022/05/07 11:19:54;;;;;;;6.68;4.05;;;;;;;;;;4888057;29;20108;-87
2022/05/07 11:22:24;;;;;;;7.30;4.00;;;;;;;;;;4885188;29;20038;-87
2022/05/07 11:24:56;;;;;;;13.05;5.00;;;;;;;;;;4889639;29;20055;-79
2022/05/07 11:27:24;;;;;;;10.35;4.85;;;;;;;;;;4888761;29;20487;-79
2022/05/07 11:29:50;;;;;;;15.43;5.00;;;;;;;;;;4891997;29;20031;-79
2022/05/07 11:32:16;;;;;;;13.13;4.05;;;;;;;;;;4883389;29;20033;-78
2022/05/07 11:34:42;;;;;;;8.82;4.15;;;;;;;;;;4884666;29;20025;-83
2022/05/07 11:37:13;;;;;;;12.27;4.20;;;;;;;;;;4884446;29;20026;-86
2022/05/07 11:40:00;;;;;;;9.45;4.05;;;;;;;;;;4886346;29;20025;-79
2022/05/07 11:42:29;;;;;;;9.45;4.05;;;;;;;;;;4879919;29;20062;-80
2022/05/07 11:47:51;;;;;;;29.65;6.20;;;;;;;;;;4886630;29;20031;-78
2022/05/07 11:50:21;;;;;;;6.32;3.85;;;;;;;;;;4886107;29;20128;-79
2022/05/07 11:52:47;;;;;;;10.48;4.40;;;;;;;;;;4887048;29;20040;-79
2022/05/07 11:55:13;;;;;;;10.32;4.45;;;;;;;;;;4883065;29;20032;-76
2022/05/07 11:57:44;;;;;;;9.70;4.00;;;;;;;;;;4887735;29;20033;-88
2022/05/07 12:00:17;;;;;;;5.68;3.60;;;;;;;;;;4883718;29;20036;-90
2022/05/07 12:02:54;;;;;;;13.18;3.95;;;;;;;;;;4887870;29;20028;-79
2022/05/07 12:05:20;;;;;;;7.95;4.18;;;;;;;;;;4878860;29;20520;-87
2022/05/07 12:07:50;;;;;;;20.27;4.78;;;;;;;;;;4891578;29;20035;-77
2022/05/07 12:10:17;;;;;;;10.38;4.00;;;;;;;;;;4892768;29;20108;-76
2022/05/07 12:12:44;;;;;;;10.52;4.10;;;;;;;;;;4884485;29;20025;-78
2022/05/07 12:15:10;;;;;;;7.40;3.67;;;;;;;;;;4891120;29;20044;-77
2022/05/07 12:17:55;;;;;;;155.00;14.38;;;;;;;;;;4891806;29;20035;-79
2022/05/07 12:20:25;;;;;;;7.93;3.55;;;;;;;;;;4887940;29;20133;-77
2022/05/07 12:31:07;;;;;;;12.23;3.83;;;;;;;;;;4890823;29;20043;-79
2022/05/07 12:33:34;;;;;;;13.48;4.22;;;;;;;;;;4885410;29;20535;-76
2022/05/07 12:36:00;;;;;;;7.63;3.70;;;;;;;;;;4879472;29;20056;-75
2022/05/07 12:38:27;;;;;;;7.43;3.78;;;;;;;;;;4884409;29;20047;-76
2022/05/07 12:40:53;;;;;;;8.35;4.32;;;;;;;;;;4890942;29;20039;-75
2022/05/07 12:43:19;;;;;;;7.43;3.83;;;;;;;;;;4890970;29;20031;-76
2022/05/07 12:45:45;;;;;;;6.80;3.85;;;;;;;;;;4885223;29;20025;-76
2022/05/07 12:48:12;;;;;;;7.57;3.63;;;;;;;;;;4896786;29;20071;-75
2022/05/07 12:50:38;;;;;;;9.38;3.92;;;;;;;;;;4897400;29;20515;-77
2022/05/07 12:53:04;;;;;;;8.27;3.80;;;;;;;;;;4896939;29;20024;-80
2022/05/07 12:55:30;;;;;;;10.98;4.18;;;;;;;;;;4897001;29;20060;-77
2022/05/07 12:57:56;;;;;;;6.93;3.67;;;;;;;;;;4897427;29;20028;-77
2022/05/07 13:00:22;;;;;;;9.32;4.15;;;;;;;;;;4896273;29;20399;-78
2022/05/07 13:02:52;;;;;;;10.13;4.10;;;;;;;;;;4896833;29;20161;-77
2022/05/07 13:05:18;;;;;;;8.50;3.72;;;;;;;;;;4897038;29;20029;-86
2022/05/07 13:07:44;;;;;;;8.25;3.55;;;;;;;;;;4895778;29;20040;-78
2022/05/07 13:10:10;;;;;;;7.55;3.88;;;;;;;;;;4896913;29;20028;-77
2022/05/07 13:12:39;;;;;;;9.35;3.40;;;;;;;;;;4885065;29;20486;-76
2022/05/07 13:15:05;;;;;;;8.15;3.83;;;;;;;;;;4897419;29;20021;-75
2022/05/07 13:17:31;;;;;;;10.77;3.60;;;;;;;;;;4881995;29;20392;-81
2022/05/07 13:19:57;;;;;;;15.30;4.18;;;;;;;;;;4892832;29;20032;-76
2022/05/07 13:22:23;;;;;;;8.38;3.63;;;;;;;;;;4900789;29;20047;-77
2022/05/07 13:24:49;;;;;;;9.95;4.10;;;;;;;;;;4900430;29;20091;-76
2022/05/07 13:27:15;;;;;;;8.32;3.70;;;;;;;;;;4884266;29;20033;-79
2022/05/07 13:29:41;;;;;;;9.07;3.72;;;;;;;;;;4901136;29;20024;-76
2022/05/07 13:32:08;;;;;;;10.20;3.50;;;;;;;;;;4900623;29;20032;-76
2022/05/07 13:34:34;;;;;;;10.63;3.70;;;;;;;;;;4898471;29;20056;-88
2022/05/07 13:37:00;;;;;;;6.20;3.47;;;;;;;;;;4885900;29;20028;-75
2022/05/07 13:39:26;;;;;;;11.07;3.78;;;;;;;;;;4880662;29;20036;-82
2022/05/07 13:41:52;;;;;;;8.85;3.63;;;;;;;;;;4885726;29;20041;-83
2022/05/07 13:44:18;;;;;;;9.68;3.70;;;;;;;;;;4884929;29;20029;-82
2022/05/07 13:46:44;;;;;;;7.43;3.60;;;;;;;;;;4880695;29;20424;-83
2022/05/07 13:49:11;;;;;;;11.98;3.90;;;;;;;;;;4881810;29;20033;-84
2022/05/07 13:51:37;;;;;;;11.25;3.60;;;;;;;;;;4887164;29;20031;-76
2022/05/07 13:54:03;;;;;;;7.05;3.60;;;;;;;;;;4899904;29;20025;-76
2022/05/07 13:56:29;;;;;;;8.02;3.67;;;;;;;;;;4900419;29;20111;-76
2022/05/07 13:58:55;;;;;;;8.23;3.80;;;;;;;;;;4899884;29;20025;-84
2022/05/07 14:01:21;;;;;;;11.35;4.00;;;;;;;;;;4900442;29;20109;-81
2022/05/07 14:03:47;;;;;;;7.32;3.88;;;;;;;;;;4900055;29;20080;-75
2022/05/07 14:06:16;;;;;;;8.23;3.75;;;;;;;;;;4899952;29;20041;-78
2022/05/07 14:08:42;;;;;;;7.20;3.70;;;;;;;;;;4893981;29;20021;-85
2022/05/07 14:11:08;;;;;;;7.43;3.97;;;;;;;;;;4881129;29;20040;-75
2022/05/07 14:13:35;;;;;;;9.13;4.40;;;;;;;;;;4882474;29;20032;-76
2022/05/07 14:16:01;;;;;;;7.65;3.53;;;;;;;;;;4900290;29;20025;-76
2022/05/07 14:18:27;;;;;;;7.28;3.65;;;;;;;;;;4900188;29;20104;-79
2022/05/07 14:20:56;;;;;;;9.40;3.72;;;;;;;;;;4898529;29;20040;-75
2022/05/07 14:23:22;;;;;;;6.95;3.60;;;;;;;;;;4899689;29;20049;-80
2022/05/07 14:25:48;;;;;;;6.40;3.25;;;;;;;;;;4899103;29;20111;-86
2022/05/07 14:28:14;;;;;;;8.68;3.58;;;;;;;;;;4885582;29;20036;-75
2022/05/07 14:30:41;;;;;;;9.55;3.72;;;;;;;;;;4906484;29;20029;-83
2022/05/07 14:33:08;;;;;;;6.95;3.88;;;;;;;;;;4899805;29;20103;-75
2022/05/07 14:35:34;;;;;;;16.23;4.07;;;;;;;;;;4899064;29;20059;-81
2022/05/07 14:38:00;;;;;;;12.43;3.63;;;;;;;;;;4899794;29;20039;-76
2022/05/07 14:40:31;;;;;;;8.50;3.55;;;;;;;;;;4899152;29;20056;-76
2022/05/07 14:42:57;;;;;;;6.40;3.33;;;;;;;;;;4900034;29;20043;-75
2022/05/07 14:45:24;;;;;;;6.43;3.33;;;;;;;;;;4899569;29;20035;-77
2022/05/07 14:47:50;;;;;;;5.72;3.42;;;;;;;;;;4898196;29;20036;-83
2022/05/07 14:50:16;;;;;;;10.10;3.83;;;;;;;;;;4899579;29;20032;-76
2022/05/07 14:52:43;;;;;;;7.72;3.35;;;;;;;;;;4899502;29;20035;-83
2022/05/07 14:55:09;;;;;;;6.43;3.50;;;;;;;;;;4899409;29;20048;-75
2022/05/07 14:57:35;;;;;;;7.90;3.58;;;;;;;;;;4897879;29;20037;-90
2022/05/07 15:00:01;;;;;;;7.32;3.38;;;;;;;;;;4899379;29;20032;-76
2022/05/07 15:02:27;;;;;;;7.72;3.30;;;;;;;;;;4899431;29;20033;-75
2022/05/07 15:04:53;;;;;;;7.43;3.30;;;;;;;;;;4898772;29;20025;-77
2022/05/07 15:07:19;;;;;;;7.10;3.15;;;;;;;;;;4898315;29;20127;-75
2022/05/07 15:12:31;;;;;;;9.65;3.42;;;;;;;;;;4899468;29;20403;-88
2022/05/07 15:14:57;;;;;;;9.55;3.42;;;;;;;;;;4898832;29;20023;-76